CheckWX is a tool to help pilots better visualize weather data.  It is not intended as a substitute for an official pre-flight weather briefing.

06:57:48 UTC

KAWM METAR
West Memphis Municipal Airport
West Memphis, Arkansas, USA
Current

1 hour ago

KAWM 160553Z AUTO 18007KT 10SM SCT046 27/22 A2988 RMK AO2 SLP114 T02670217 10300 20261 403170200 53008
Observed
Jun-16 @ 05:53 UTC
Wind
  • 180° at 7 KTS
Visibility
10 SM
Flight Rules
VFR
Cloud Levels
  • Scattered at 4,600' AGL
Temperature
27°C / 81°F
Dewpoint
22°C / 72°F
Heat Index
29°C / 85°F
Humidity
74%
Altimeter
29.88" Hg
Pressure
1011.82 hPa
Previous

2 hours ago

KAWM 160453Z AUTO 19010KT 10SM CLR 27/22 A2987 RMK AO2 SLP109 T02720217
Observed
Jun-16 @ 04:53 UTC
Wind
  • 190° at 10 KTS
Visibility
10 SM
Flight Rules
VFR
Cloud Levels
  • Clear skies
Temperature
27°C / 81°F
Dewpoint
22°C / 72°F
Heat Index
29°C / 85°F
Humidity
74%
Altimeter
29.87" Hg
Pressure
1011.52 hPa
Previous

3 hours ago

KAWM 160353Z AUTO 18009KT 10SM CLR 28/22 A2987 RMK AO2 SLP110 T02780217
Observed
Jun-16 @ 03:53 UTC
Wind
  • 180° at 9 KTS
Visibility
10 SM
Flight Rules
VFR
Cloud Levels
  • Clear skies
Temperature
28°C / 82°F
Dewpoint
22°C / 72°F
Heat Index
30°C / 86°F
Humidity
70%
Altimeter
29.87" Hg
Pressure
1011.52 hPa